Time;durP1;ratioP1;P1;durP2;ratioP2;P2;SDS_P1;SDS_P2;PMS_P1;PMS_P2;Temp;Humidity;BMP_temperature;BMP_pressure;BME280_temperature;BME280_humidity;BME280_pressure;Samples;Min_cycle;Max_cycle;Signal;HPM_P1;HPM_P2
2021/01/14 00:01:18;;;;;;;7.68;1.10;;;1.10;99.90;;;;;;12392470;28;20156;-80
2021/01/14 00:07:20;;;;;;;13.27;1.33;;;1.10;99.90;;;;;;12387460;28;20058;-81
2021/01/14 00:13:21;;;;;;;9.32;1.48;;;1.10;99.90;;;;;;12363692;28;20137;-80
2021/01/14 00:19:22;;;;;;;17.08;1.58;;;1.00;99.90;;;;;;12367846;28;20065;-81
2021/01/14 00:25:24;;;;;;;8.52;1.20;;;1.00;99.90;;;;;;12363795;28;20134;-81
2021/01/14 00:31:25;;;;;;;7.25;1.23;;;0.90;99.90;;;;;;12367212;28;20061;-80
2021/01/14 00:43:46;;;;;;;7.38;1.30;;;0.90;99.90;;;;;;12387204;28;20140;-80
2021/01/14 00:49:47;;;;;;;17.38;2.85;;;1.00;99.90;;;;;;12391854;28;20062;-81
2021/01/14 00:55:49;;;;;;;10.75;1.27;;;0.90;99.90;;;;;;12376026;28;20058;-80
2021/01/14 01:01:50;;;;;;;8.98;1.10;;;0.90;99.90;;;;;;12359767;28;20101;-81
2021/01/14 01:07:57;;;;;;;6.20;0.95;;;1.00;99.90;;;;;;12346953;28;20141;-79
2021/01/14 01:13:59;;;;;;;4.93;1.13;;;1.10;99.90;;;;;;12364781;28;20046;-81
2021/01/14 01:20:00;;;;;;;7.25;1.40;;;1.10;99.90;;;;;;12372300;28;20074;-79
2021/01/14 01:26:02;;;;;;;11.43;2.85;;;1.00;99.90;;;;;;12385037;28;20443;-80
2021/01/14 01:32:03;;;;;;;9.20;1.50;;;1.20;99.90;;;;;;12389312;28;20573;-81
2021/01/14 01:38:05;;;;;;;10.32;1.63;;;1.10;99.90;;;;;;12374049;28;20053;-80
2021/01/14 01:44:06;;;;;;;7.20;1.27;;;1.10;99.90;;;;;;12353077;28;20084;-81
2021/01/14 01:50:08;;;;;;;5.75;1.30;;;1.10;99.90;;;;;;12369342;28;20161;-81
2021/01/14 01:56:09;;;;;;;8.05;1.60;;;1.20;99.90;;;;;;12375835;28;20142;-80
2021/01/14 02:02:23;;;;;;;6.10;1.52;;;1.20;99.90;;;;;;12379749;28;20149;-81
2021/01/14 02:08:39;;;;;;;8.13;1.70;;;1.30;99.90;;;;;;12388481;28;20053;-81
2021/01/14 02:14:42;;;;;;;5.80;1.40;;;1.30;99.90;;;;;;12369614;28;20198;-79
2021/01/14 02:20:48;;;;;;;9.05;1.63;;;1.30;99.90;;;;;;12368515;28;20042;-80
2021/01/14 02:26:51;;;;;;;6.05;1.35;;;1.30;99.90;;;;;;12365295;28;20062;-81
2021/01/14 02:32:52;;;;;;;6.97;1.67;;;1.20;99.90;;;;;;12358362;28;20042;-80
2021/01/14 02:38:54;;;;;;;7.93;1.55;;;1.10;99.90;;;;;;12379301;28;20142;-80
2021/01/14 02:44:56;;;;;;;7.30;1.40;;;1.00;99.90;;;;;;12366016;28;20384;-79
2021/01/14 02:51:02;;;;;;;6.72;1.30;;;0.90;99.90;;;;;;12377137;28;20046;-81
2021/01/14 02:57:06;;;;;;;4.55;1.45;;;0.90;99.90;;;;;;12392898;28;20070;-80
2021/01/14 03:03:07;;;;;;;7.47;1.80;;;0.90;99.90;;;;;;12364507;28;20050;-80
2021/01/14 03:09:08;;;;;;;10.43;2.42;;;1.00;99.90;;;;;;12352920;28;20501;-80
2021/01/14 03:15:10;;;;;;;4.95;1.27;;;0.90;99.90;;;;;;12369303;28;24390;-79
2021/01/14 03:21:17;;;;;;;5.50;1.30;;;1.00;99.90;;;;;;12381171;28;20050;-80
2021/01/14 03:27:19;;;;;;;3.13;1.42;;;1.10;99.90;;;;;;12380793;28;20049;-81
2021/01/14 03:33:20;;;;;;;6.22;1.10;;;1.00;99.90;;;;;;12392366;28;20069;-79
2021/01/14 03:39:21;;;;;;;6.50;1.40;;;1.00;99.90;;;;;;12379966;28;20133;-80
2021/01/14 03:45:22;;;;;;;7.80;1.25;;;1.10;99.90;;;;;;12380928;28;20133;-80
2021/01/14 03:51:24;;;;;;;4.72;1.38;;;1.00;99.90;;;;;;12370007;28;20130;-79
2021/01/14 03:57:25;;;;;;;6.15;1.55;;;1.10;99.90;;;;;;12358377;28;20497;-79
2021/01/14 04:03:26;;;;;;;7.97;1.30;;;1.10;99.90;;;;;;12347575;28;20070;-80
2021/01/14 04:09:28;;;;;;;4.78;1.30;;;1.00;99.90;;;;;;12343642;28;20049;-80
2021/01/14 04:15:29;;;;;;;7.50;1.75;;;1.00;99.90;;;;;;12354538;28;20077;-80
2021/01/14 04:21:31;;;;;;;6.00;1.52;;;1.00;99.90;;;;;;12368949;28;20410;-79
2021/01/14 04:27:32;;;;;;;6.30;1.35;;;1.10;99.90;;;;;;12386954;28;20088;-79
2021/01/14 04:33:33;;;;;;;6.50;1.33;;;1.00;99.90;;;;;;12383687;28;20302;-79
2021/01/14 04:39:34;;;;;;;7.28;2.22;;;1.00;99.90;;;;;;12360311;28;20073;-81
2021/01/14 04:45:36;;;;;;;4.72;1.45;;;1.00;99.90;;;;;;12364405;28;20145;-80
2021/01/14 04:51:38;;;;;;;7.20;1.80;;;1.10;99.90;;;;;;12384066;28;20049;-79
2021/01/14 04:57:43;;;;;;;9.23;2.00;;;1.00;99.90;;;;;;12357518;28;20050;-80
2021/01/14 05:03:47;;;;;;;7.35;1.85;;;1.00;99.90;;;;;;12384814;28;20122;-80
2021/01/14 05:09:48;;;;;;;4.87;1.70;;;1.00;99.90;;;;;;12383537;28;20084;-79
2021/01/14 05:15:50;;;;;;;7.85;2.00;;;1.00;99.90;;;;;;12377885;28;20126;-79
2021/01/14 05:21:57;;;;;;;4.72;1.75;;;1.00;99.90;;;;;;12388822;28;20470;-81
2021/01/14 05:28:13;;;;;;;4.88;1.98;;;1.00;99.90;;;;;;12366425;28;20082;-80
2021/01/14 05:34:15;;;;;;;4.55;1.90;;;1.00;99.90;;;;;;12381100;28;20054;-79
2021/01/14 05:40:23;;;;;;;11.60;2.63;;;1.00;99.90;;;;;;12385041;28;20074;-79
2021/01/14 05:46:31;;;;;;;4.63;2.05;;;1.10;99.90;;;;;;12341785;28;20085;-81
2021/01/14 05:52:33;;;;;;;12.02;3.20;;;1.10;99.90;;;;;;12354602;28;20088;-79
2021/01/14 05:58:36;;;;;;;7.65;2.30;;;1.00;99.90;;;;;;12348152;28;20141;-79
2021/01/14 06:04:37;;;;;;;11.77;2.55;;;1.10;99.90;;;;;;12358341;28;20042;-80
2021/01/14 06:10:41;;;;;;;5.13;2.28;;;1.10;99.90;;;;;;12373422;28;20089;-81
2021/01/14 06:16:50;;;;;;;8.50;2.60;;;1.00;99.90;;;;;;12377970;28;20112;-80
2021/01/14 06:22:55;;;;;;;6.90;2.95;;;1.10;99.90;;;;;;12377004;28;20299;-80
2021/01/14 06:28:57;;;;;;;10.13;3.10;;;1.20;99.90;;;;;;12355975;28;20196;-80
2021/01/14 06:35:00;;;;;;;8.57;3.03;;;1.20;99.90;;;;;;12379167;28;20073;-80
2021/01/14 06:41:08;;;;;;;8.63;3.03;;;1.20;99.90;;;;;;12345395;28;20077;-79
2021/01/14 06:47:12;;;;;;;5.32;2.72;;;1.20;99.90;;;;;;12365102;28;20092;-80
2021/01/14 06:53:20;;;;;;;9.63;3.13;;;1.20;99.90;;;;;;12370713;28;20050;-80
2021/01/14 06:59:25;;;;;;;8.82;3.13;;;1.20;99.90;;;;;;12351135;28;20069;-80
2021/01/14 07:05:38;;;;;;;9.27;3.17;;;1.10;99.90;;;;;;12336931;28;20074;-81
2021/01/14 07:11:43;;;;;;;10.27;3.47;;;1.10;99.90;;;;;;12325618;28;20034;-81
2021/01/14 07:17:45;;;;;;;7.60;3.22;;;1.20;99.90;;;;;;12322763;28;20081;-80
2021/01/14 07:24:18;;;;;;;9.55;3.78;;;1.20;99.90;;;;;;12305031;28;20118;-80
2021/01/14 07:30:21;;;;;;;9.27;3.83;;;1.10;99.90;;;;;;12295632;28;20081;-80
2021/01/14 07:36:26;;;;;;;8.80;3.30;;;1.20;99.90;;;;;;12273326;28;20046;-80
2021/01/14 07:42:32;;;;;;;12.48;4.00;;;1.20;99.90;;;;;;12302252;28;20546;-80
2021/01/14 07:48:34;;;;;;;6.40;3.63;;;1.30;99.90;;;;;;12273192;28;20496;-80
2021/01/14 07:54:56;;;;;;;9.88;4.57;;;1.20;99.90;;;;;;12301821;28;20070;-80
2021/01/14 08:01:06;;;;;;;10.15;4.68;;;1.20;99.90;;;;;;12303041;28;20051;-81
2021/01/14 08:07:21;;;;;;;10.80;4.40;;;1.20;99.90;;;;;;12279068;28;20058;-80
2021/01/14 08:13:22;;;;;;;12.20;5.00;;;1.20;99.90;;;;;;12299605;28;20043;-80
2021/01/14 08:19:30;;;;;;;14.00;4.90;;;1.00;99.90;;;;;;12281129;28;20046;-80
2021/01/14 08:25:35;;;;;;;10.85;5.65;;;1.00;99.90;;;;;;12277689;28;20745;-80
2021/01/14 08:31:37;;;;;;;11.95;5.65;;;1.10;99.90;;;;;;12305012;28;20089;-82
2021/01/14 08:37:56;;;;;;;11.40;5.60;;;1.10;99.90;;;;;;12276756;28;20091;-81
2021/01/14 08:44:01;;;;;;;12.15;5.72;;;1.10;99.90;;;;;;12294971;28;20146;-80
2021/01/14 08:50:04;;;;;;;9.38;5.60;;;1.20;99.90;;;;;;12282021;28;20149;-79
2021/01/14 08:56:08;;;;;;;11.43;5.95;;;1.50;99.90;;;;;;12285128;28;20515;-80
2021/01/14 09:02:09;;;;;;;13.38;6.18;;;1.50;99.90;;;;;;12297988;28;20095;-79
2021/01/14 09:08:12;;;;;;;12.52;6.57;;;1.50;99.90;;;;;;12286616;28;20055;-80
2021/01/14 09:14:15;;;;;;;12.15;6.15;;;1.50;99.90;;;;;;12291969;28;20062;-80
2021/01/14 09:20:17;;;;;;;11.68;6.53;;;1.40;99.90;;;;;;12307713;28;20054;-80
2021/01/14 09:26:20;;;;;;;12.60;6.93;;;1.40;99.90;;;;;;12283736;28;20086;-80
2021/01/14 09:32:21;;;;;;;15.77;8.25;;;1.40;99.90;;;;;;12280687;28;20047;-80
2021/01/14 09:38:25;;;;;;;18.05;10.07;;;1.40;99.90;;;;;;12273800;28;20491;-80
2021/01/14 09:44:30;;;;;;;16.40;9.05;;;1.30;99.90;;;;;;12292545;28;20900;-81
2021/01/14 09:50:31;;;;;;;;;;;1.50;99.90;;;;;;12282616;28;20062;-80
2021/01/14 09:56:47;;;;;;;17.73;8.20;;;1.70;99.90;;;;;;12292359;28;19962;-81
2021/01/14 10:02:53;;;;;;;15.75;8.38;;;1.90;99.90;;;;;;12273847;28;20043;-81
2021/01/14 10:08:56;;;;;;;17.63;9.55;;;1.80;99.90;;;;;;12291779;28;20054;-80
2021/01/14 10:15:14;;;;;;;15.68;9.30;;;1.90;99.90;;;;;;12303558;28;20101;-80
2021/01/14 10:21:23;;;;;;;16.42;8.57;;;1.90;99.90;;;;;;12300978;28;20062;-81
2021/01/14 10:27:24;;;;;;;17.65;9.65;;;1.70;99.90;;;;;;12288556;28;20565;-80
2021/01/14 10:33:25;;;;;;;18.08;9.77;;;1.60;99.90;;;;;;12305250;28;20137;-80
2021/01/14 10:39:38;;;;;;;19.02;9.90;;;1.60;99.90;;;;;;12296519;28;20047;-80
2021/01/14 10:45:41;;;;;;;19.65;10.57;;;1.70;99.90;;;;;;12305185;28;20059;-81
2021/01/14 10:51:43;;;;;;;16.35;10.32;;;1.70;99.90;;;;;;12273387;28;20086;-80
2021/01/14 10:57:53;;;;;;;19.83;10.80;;;1.60;99.90;;;;;;12283501;28;20059;-80
2021/01/14 11:04:06;;;;;;;20.55;10.98;;;1.60;99.90;;;;;;12264732;28;20448;-81
2021/01/14 11:10:08;;;;;;;19.08;9.85;;;1.60;99.90;;;;;;12287797;28;20270;-80
2021/01/14 11:16:11;;;;;;;21.60;10.63;;;1.70;99.90;;;;;;12301678;28;20070;-80
2021/01/14 11:22:12;;;;;;;18.42;10.82;;;2.10;99.90;;;;;;12296867;28;20078;-81
2021/01/14 11:28:14;;;;;;;14.93;9.20;;;2.50;99.90;;;;;;12305808;28;20719;-80
2021/01/14 11:34:15;;;;;;;16.35;9.65;;;2.70;99.90;;;;;;12280844;28;20058;-81
2021/01/14 11:40:17;;;;;;;13.75;8.50;;;2.40;99.90;;;;;;12287580;28;20523;-82
2021/01/14 11:46:24;;;;;;;15.73;9.80;;;2.60;99.90;;;;;;12281029;28;20193;-80
2021/01/14 11:52:26;;;;;;;16.27;9.10;;;2.60;99.90;;;;;;12286945;28;20039;-80
2021/01/14 11:58:29;;;;;;;17.42;9.52;;;3.10;99.90;;;;;;12281311;28;20046;-80
2021/01/14 12:04:31;;;;;;;16.55;10.30;;;2.90;99.90;;;;;;12298703;28;20039;-81
2021/01/14 12:10:32;;;;;;;16.05;9.40;;;2.90;99.90;;;;;;12304075;28;20078;-81
2021/01/14 12:16:34;;;;;;;18.50;10.25;;;3.00;99.90;;;;;;12296177;28;20423;-80
2021/01/14 12:22:39;;;;;;;13.98;8.77;;;3.20;99.90;;;;;;12298870;28;20081;-81
2021/01/14 12:28:40;;;;;;;15.50;9.35;;;3.20;99.90;;;;;;12303970;28;20057;-80
2021/01/14 12:34:41;;;;;;;14.05;9.52;;;3.20;99.90;;;;;;12282366;28;20881;-81
2021/01/14 12:40:42;;;;;;;17.17;10.38;;;2.80;99.90;;;;;;12272090;28;20512;-82
2021/01/14 12:46:46;;;;;;;16.98;9.50;;;2.90;99.90;;;;;;12287930;28;20097;-80
2021/01/14 12:52:47;;;;;;;15.63;9.68;;;2.60;99.90;;;;;;12277078;28;20097;-81
2021/01/14 12:58:49;;;;;;;15.75;8.95;;;2.50;99.90;;;;;;12292207;28;20562;-81
2021/01/14 13:04:50;;;;;;;15.63;8.68;;;2.30;99.90;;;;;;12282508;28;20046;-80
2021/01/14 13:10:51;;;;;;;14.23;8.50;;;2.40;99.90;;;;;;12275547;28;20047;-80
2021/01/14 13:16:54;;;;;;;12.20;8.07;;;2.30;99.90;;;;;;12279356;28;20051;-81
2021/01/14 13:22:55;;;;;;;15.85;8.75;;;2.20;99.90;;;;;;12291163;28;20066;-81
2021/01/14 13:28:57;;;;;;;17.23;8.40;;;2.00;99.90;;;;;;12293862;28;20109;-82
2021/01/14 13:34:59;;;;;;;18.48;8.73;;;2.10;99.90;;;;;;12278678;28;20047;-81
2021/01/14 13:41:00;;;;;;;17.25;8.70;;;2.00;99.90;;;;;;12295697;28;20454;-81
2021/01/14 13:47:02;;;;;;;16.05;8.63;;;2.00;99.90;;;;;;12287231;28;20496;-81
2021/01/14 13:53:04;;;;;;;15.85;8.68;;;2.00;99.90;;;;;;12270218;28;20142;-80
2021/01/14 13:59:06;;;;;;;18.25;7.93;;;2.00;99.90;;;;;;12265290;28;20047;-80
2021/01/14 14:05:09;;;;;;;13.60;8.00;;;2.10;99.90;;;;;;12280458;28;20554;-80
2021/01/14 14:11:10;;;;;;;15.30;8.50;;;2.10;99.90;;;;;;12299889;28;20070;-81
2021/01/14 14:17:12;;;;;;;15.60;8.32;;;2.20;99.90;;;;;;12292547;28;20149;-81
2021/01/14 14:23:13;;;;;;;14.85;8.85;;;2.30;99.90;;;;;;12270483;28;20047;-81
2021/01/14 14:29:14;;;;;;;15.38;8.70;;;2.10;99.90;;;;;;12281292;28;20059;-81
2021/01/14 14:35:15;;;;;;;14.90;8.73;;;2.20;99.90;;;;;;12268294;28;20051;-81
2021/01/14 14:41:18;;;;;;;18.75;8.85;;;2.10;99.90;;;;;;12262522;28;20055;-81
2021/01/14 14:47:19;;;;;;;15.32;8.82;;;2.10;99.90;;;;;;12278180;28;20059;-80
2021/01/14 14:53:20;;;;;;;14.68;9.07;;;2.00;99.90;;;;;;12282235;28;20122;-80
2021/01/14 14:59:21;;;;;;;16.38;9.00;;;1.90;99.90;;;;;;12284166;28;20138;-80
2021/01/14 15:05:23;;;;;;;17.50;9.55;;;1.80;99.90;;;;;;12293843;28;20130;-81
2021/01/14 15:11:25;;;;;;;18.15;9.18;;;1.70;99.90;;;;;;12302893;28;20075;-80
2021/01/14 15:17:26;;;;;;;17.33;9.13;;;1.70;99.90;;;;;;12279888;28;20483;-81
2021/01/14 15:23:27;;;;;;;18.50;9.60;;;1.60;99.90;;;;;;12274200;28;20070;-81
2021/01/14 15:29:28;;;;;;;18.33;10.52;;;1.50;99.90;;;;;;12288709;28;20062;-81
2021/01/14 15:35:30;;;;;;;17.52;10.05;;;1.40;99.90;;;;;;12294618;28;21079;-80
2021/01/14 15:41:34;;;;;;;20.55;10.48;;;1.40;99.90;;;;;;12291933;28;20089;-80
2021/01/14 15:47:37;;;;;;;17.90;10.40;;;1.30;99.90;;;;;;12275195;28;20137;-81
2021/01/14 15:53:38;;;;;;;22.30;11.07;;;1.20;99.90;;;;;;12271984;28;20047;-80
2021/01/14 15:59:40;;;;;;;19.67;11.23;;;1.20;99.90;;;;;;12285902;28;20518;-79
2021/01/14 16:05:42;;;;;;;22.48;11.80;;;1.20;99.90;;;;;;12284203;28;20047;-81
2021/01/14 16:11:43;;;;;;;22.52;11.45;;;1.10;99.90;;;;;;12281292;28;20043;-82
2021/01/14 16:17:44;;;;;;;21.98;11.57;;;1.20;99.90;;;;;;12273537;28;20051;-81
2021/01/14 16:23:46;;;;;;;15.68;9.98;;;1.10;99.90;;;;;;12297956;28;20046;-80
2021/01/14 16:29:48;;;;;;;16.63;9.65;;;1.20;99.90;;;;;;12274845;28;20078;-80
2021/01/14 16:35:49;;;;;;;17.48;10.45;;;1.10;99.90;;;;;;12278445;28;20077;-80
2021/01/14 16:42:00;;;;;;;19.50;9.85;;;1.10;99.90;;;;;;12263311;28;20056;-82
2021/01/14 16:48:01;;;;;;;19.92;10.68;;;1.10;99.90;;;;;;12268162;28;20498;-81
2021/01/14 16:54:03;;;;;;;20.08;10.80;;;1.10;99.90;;;;;;12274792;28;20142;-80
2021/01/14 17:00:05;;;;;;;23.02;11.10;;;1.10;99.90;;;;;;12272178;28;20107;-81
2021/01/14 17:06:06;;;;;;;19.45;10.85;;;1.10;99.90;;;;;;12270871;28;20047;-81
2021/01/14 17:12:08;;;;;;;20.75;11.18;;;1.10;99.90;;;;;;12284492;28;20137;-81
2021/01/14 17:18:09;;;;;;;19.25;10.38;;;1.10;99.90;;;;;;12279782;28;20050;-80
2021/01/14 17:24:13;;;;;;;16.77;10.45;;;1.10;99.90;;;;;;12270631;28;20630;-81
2021/01/14 17:30:15;;;;;;;16.30;9.88;;;1.10;99.90;;;;;;12284181;28;20793;-82
2021/01/14 17:36:20;;;;;;;19.10;10.75;;;1.10;99.90;;;;;;12346433;28;20093;-81
2021/01/14 17:42:21;;;;;;;17.42;11.05;;;1.10;99.90;;;;;;12346430;28;20046;-81
2021/01/14 17:48:23;;;;;;;18.38;11.10;;;1.10;99.90;;;;;;12347306;28;20141;-80
2021/01/14 17:54:24;;;;;;;19.85;11.30;;;1.10;99.90;;;;;;12361266;28;20525;-81
2021/01/14 18:00:25;;;;;;;20.05;12.10;;;1.10;99.90;;;;;;12372250;28;20078;-81
2021/01/14 18:06:27;;;;;;;24.70;12.75;;;1.00;99.90;;;;;;12381166;28;20100;-81
2021/01/14 18:12:31;;;;;;;19.65;10.77;;;1.00;99.90;;;;;;12365383;28;20118;-81
2021/01/14 18:18:33;;;;;;;19.70;10.95;;;1.10;99.90;;;;;;12385009;28;20261;-80
2021/01/14 18:24:34;;;;;;;20.95;11.00;;;1.00;99.90;;;;;;12366939;28;20489;-82
2021/01/14 18:30:35;;;;;;;21.05;10.32;;;1.00;99.90;;;;;;12367520;28;20073;-80
2021/01/14 18:36:37;;;;;;;17.30;9.50;;;1.00;99.90;;;;;;12385639;28;20601;-80
2021/01/14 18:42:46;;;;;;;16.63;9.38;;;0.90;99.90;;;;;;12371135;28;20038;-81
2021/01/14 18:48:48;;;;;;;16.27;9.98;;;0.90;99.90;;;;;;12373883;28;20490;-81
2021/01/14 18:54:49;;;;;;;17.15;9.05;;;0.90;99.90;;;;;;12354914;28;20057;-80
2021/01/14 19:00:51;;;;;;;16.67;9.60;;;0.90;99.90;;;;;;12362948;28;20414;-80
2021/01/14 19:06:52;;;;;;;14.07;9.00;;;0.90;99.90;;;;;;12349399;28;20054;-81
2021/01/14 19:12:54;;;;;;;18.23;9.82;;;0.90;99.90;;;;;;12386371;28;20453;-81
2021/01/14 19:18:55;;;;;;;18.50;10.38;;;0.90;99.90;;;;;;12348205;28;20073;-81
2021/01/14 19:24:56;;;;;;;17.40;10.30;;;0.90;99.90;;;;;;12360976;28;20150;-80
2021/01/14 19:30:58;;;;;;;18.05;10.10;;;1.00;99.90;;;;;;12359032;28;21261;-80
2021/01/14 19:37:03;;;;;;;16.90;10.48;;;1.00;99.90;;;;;;12378420;28;20457;-82
2021/01/14 19:43:09;;;;;;;18.48;10.43;;;0.90;99.90;;;;;;12349063;28;20410;-80
2021/01/14 19:49:16;;;;;;;17.70;10.13;;;1.00;99.90;;;;;;12377110;28;20418;-81
2021/01/14 19:55:19;;;;;;;20.25;10.25;;;1.00;99.90;;;;;;12364445;28;20499;-80
2021/01/14 20:01:21;;;;;;;18.98;10.68;;;1.00;99.90;;;;;;12378796;28;20141;-80
2021/01/14 20:07:22;;;;;;;19.83;10.68;;;1.00;99.90;;;;;;12371281;28;20141;-80
2021/01/14 20:13:23;;;;;;;21.17;11.88;;;1.00;99.90;;;;;;12382658;28;20049;-81
2021/01/14 20:19:25;;;;;;;20.27;12.02;;;0.90;99.90;;;;;;12362393;28;20042;-81
2021/01/14 20:25:26;;;;;;;19.15;11.57;;;0.90;99.90;;;;;;12373471;28;20046;-80
2021/01/14 20:31:27;;;;;;;19.55;11.38;;;0.90;99.90;;;;;;12359814;28;20571;-80
2021/01/14 20:37:29;;;;;;;21.55;11.73;;;0.90;99.90;;;;;;12389048;28;20058;-80
2021/01/14 20:43:30;;;;;;;19.05;11.88;;;0.90;99.90;;;;;;12359188;28;20148;-82
2021/01/14 20:49:31;;;;;;;18.02;12.05;;;0.90;99.90;;;;;;12349652;28;20157;-83
2021/01/14 20:55:33;;;;;;;21.30;12.52;;;0.90;99.90;;;;;;12373337;28;20137;-81
2021/01/14 21:01:37;;;;;;;18.05;11.40;;;0.90;99.90;;;;;;12372423;28;20120;-83
2021/01/14 21:07:39;;;;;;;;;;;0.90;99.90;;;;;;12377442;28;20050;-82
2021/01/14 21:13:40;;;;;;;19.55;11.65;;;0.80;99.90;;;;;;12374729;28;19994;-81
2021/01/14 21:19:42;;;;;;;20.23;12.25;;;0.80;99.90;;;;;;12356620;28;20135;-81
2021/01/14 21:25:44;;;;;;;19.90;12.25;;;0.80;99.90;;;;;;12350694;28;20896;-82
2021/01/14 21:31:45;;;;;;;20.77;11.75;;;0.80;99.90;;;;;;12354545;28;20072;-82
2021/01/14 21:37:47;;;;;;;21.83;12.65;;;0.70;99.90;;;;;;12361934;28;20096;-83
2021/01/14 21:43:53;;;;;;;19.83;12.57;;;0.80;99.90;;;;;;12369731;28;20071;-82
2021/01/14 21:49:54;;;;;;;21.13;13.02;;;0.70;99.90;;;;;;12378275;28;20082;-82
2021/01/14 21:55:55;;;;;;;25.45;13.60;;;0.70;99.90;;;;;;12383417;28;20510;-83
2021/01/14 22:01:57;;;;;;;21.85;13.43;;;0.70;99.90;;;;;;12361204;28;20082;-81
2021/01/14 22:07:58;;;;;;;25.90;13.70;;;0.70;99.90;;;;;;12392751;28;20078;-82
2021/01/14 22:13:59;;;;;;;24.80;13.88;;;0.70;99.90;;;;;;12382946;28;20047;-82
2021/01/14 22:20:01;;;;;;;19.90;13.02;;;0.70;99.90;;;;;;12397608;28;20117;-81
2021/01/14 22:26:02;;;;;;;23.00;12.98;;;0.70;99.90;;;;;;12374070;28;20046;-81
2021/01/14 22:32:05;;;;;;;21.90;13.20;;;0.80;99.90;;;;;;12375766;28;20046;-83
2021/01/14 22:38:07;;;;;;;21.50;13.60;;;0.60;99.90;;;;;;12364434;28;20076;-82
2021/01/14 22:44:10;;;;;;;23.08;14.23;;;0.40;99.90;;;;;;12392418;28;20049;-82
2021/01/14 22:50:11;;;;;;;23.98;14.10;;;0.30;99.90;;;;;;12308232;28;20179;-83
2021/01/14 22:56:13;;;;;;;26.60;15.00;;;0.20;99.90;;;;;;12321545;28;20183;-81
2021/01/14 23:02:14;;;;;;;27.42;15.98;;;0.30;99.90;;;;;;12333667;28;20133;-81
2021/01/14 23:08:15;;;;;;;28.80;16.92;;;0.30;99.90;;;;;;12327798;28;21320;-82
2021/01/14 23:14:17;;;;;;;32.67;17.70;;;0.30;99.90;;;;;;12317322;28;20465;-81
2021/01/14 23:20:18;;;;;;;30.42;16.85;;;0.20;99.90;;;;;;12328836;28;20078;-82
2021/01/14 23:26:20;;;;;;;30.33;17.08;;;0.00;99.90;;;;;;12321288;28;20054;-81
2021/01/14 23:32:21;;;;;;;32.33;16.98;;;-0.20;99.90;;;;;;12319076;28;20050;-81
2021/01/14 23:38:23;;;;;;;26.75;15.90;;;-0.20;99.90;;;;;;12315026;28;20077;-81
2021/01/14 23:44:24;;;;;;;29.52;16.77;;;-0.20;99.90;;;;;;12326732;28;20173;-80
2021/01/14 23:50:25;;;;;;;31.33;17.02;;;-0.30;99.90;;;;;;12341049;28;20555;-82
2021/01/14 23:56:26;;;;;;;32.15;17.35;;;-0.40;99.90;;;;;;12324730;28;20134;-81
